createdAt,value
2018-07-25T00:00:08.024Z,47.70
2018-07-25T00:02:36.762Z,47.80
2018-07-25T00:05:06.023Z,48.10
2018-07-25T00:07:34.631Z,47.90
2018-07-25T00:10:03.336Z,48.00
2018-07-25T00:12:31.961Z,48.40
2018-07-25T00:15:00.605Z,48.10
2018-07-25T00:17:29.228Z,48.20
2018-07-25T00:19:57.912Z,48.20
2018-07-25T00:22:26.578Z,48.50
2018-07-25T00:24:55.180Z,48.20
2018-07-25T00:27:23.946Z,48.70
2018-07-25T00:29:52.594Z,50.20
2018-07-25T00:32:21.296Z,49.80
2018-07-25T00:34:49.886Z,50.30
2018-07-25T00:37:18.595Z,50.70
2018-07-25T00:39:47.223Z,50.80
2018-07-25T00:42:15.865Z,51.10
2018-07-25T00:44:44.434Z,50.60
2018-07-25T00:47:13.031Z,50.70
2018-07-25T00:49:41.659Z,50.60
2018-07-25T00:52:10.257Z,50.60
2018-07-25T00:54:38.885Z,50.70
2018-07-25T00:57:07.464Z,50.50
2018-07-25T00:59:36.053Z,50.10
2018-07-25T01:02:04.631Z,50.40
2018-07-25T01:04:33.211Z,50.60
2018-07-25T01:07:01.788Z,50.70
2018-07-25T01:09:30.375Z,50.70
2018-07-25T01:11:58.963Z,51.20
2018-07-25T01:14:27.563Z,51.50
2018-07-25T01:16:56.193Z,51.60
2018-07-25T01:19:24.776Z,51.50
2018-07-25T01:21:53.353Z,51.40
2018-07-25T01:24:22.001Z,51.50
2018-07-25T01:26:50.629Z,51.00
2018-07-25T01:29:19.185Z,50.60
2018-07-25T01:31:47.827Z,50.60
2018-07-25T01:34:16.405Z,51.60
2018-07-25T01:36:44.981Z,51.00
2018-07-25T01:39:13.583Z,51.10
2018-07-25T01:41:42.160Z,51.10
2018-07-25T01:44:10.757Z,51.10
2018-07-25T01:46:39.461Z,50.40
2018-07-25T01:49:08.043Z,49.90
2018-07-25T01:51:36.641Z,49.90
2018-07-25T01:54:05.232Z,49.90
2018-07-25T01:56:33.888Z,49.70
2018-07-25T01:59:02.479Z,49.80
2018-07-25T02:01:31.093Z,49.60
2018-07-25T02:03:59.703Z,49.60
2018-07-25T02:06:28.285Z,49.70
2018-07-25T02:08:57.169Z,49.50
2018-07-25T02:11:25.743Z,49.70
2018-07-25T02:13:54.372Z,49.90
2018-07-25T02:16:23.034Z,49.70
2018-07-25T02:18:51.617Z,49.70
2018-07-25T02:21:20.214Z,49.30
2018-07-25T02:23:48.802Z,49.10
2018-07-25T02:26:17.387Z,49.20
2018-07-25T02:28:46.015Z,49.10
2018-07-25T02:31:15.368Z,49.40
2018-07-25T02:33:49.302Z,49.20
2018-07-25T02:36:17.919Z,49.60
2018-07-25T02:38:46.500Z,49.40
2018-07-25T02:41:15.261Z,49.80
2018-07-25T02:43:43.921Z,50.20
2018-07-25T02:46:12.518Z,50.30
2018-07-25T02:48:41.151Z,50.50
2018-07-25T02:51:09.774Z,51.00
2018-07-25T02:53:38.363Z,51.00
2018-07-25T02:56:06.974Z,51.60
2018-07-25T02:58:35.699Z,51.60
2018-07-25T03:01:04.343Z,52.30
2018-07-25T03:03:32.969Z,51.70
2018-07-25T03:06:01.593Z,51.70
2018-07-25T03:08:30.171Z,51.60
2018-07-25T03:10:58.781Z,51.70
2018-07-25T03:13:27.430Z,52.00
2018-07-25T03:16:05.653Z,52.10
2018-07-25T03:18:34.251Z,52.40
2018-07-25T03:21:02.979Z,52.80
2018-07-25T03:23:33.654Z,52.90
2018-07-25T03:26:02.268Z,53.40
2018-07-25T03:28:31.085Z,53.00
2018-07-25T03:31:00.406Z,52.70
2018-07-25T03:33:29.090Z,52.90
2018-07-25T03:35:58.762Z,53.40
2018-07-25T03:38:27.997Z,53.80
2018-07-25T03:40:56.664Z,53.90
2018-07-25T03:43:25.305Z,54.20
2018-07-25T03:45:54.022Z,54.60
2018-07-25T03:48:22.637Z,54.70
2018-07-25T03:50:51.395Z,55.40
2018-07-25T03:53:20.075Z,55.80
2018-07-25T03:55:48.659Z,56.70
2018-07-25T03:58:17.283Z,56.30
2018-07-25T04:00:45.961Z,57.10
2018-07-25T04:03:15.321Z,57.00
2018-07-25T04:05:43.990Z,57.20
2018-07-25T04:08:13.250Z,57.30
2018-07-25T04:10:46.241Z,57.30
2018-07-25T04:13:14.887Z,57.40
2018-07-25T04:15:43.595Z,57.50
2018-07-25T04:18:12.282Z,57.60
2018-07-25T04:20:40.954Z,57.50
2018-07-25T04:23:09.534Z,57.40
2018-07-25T04:25:38.096Z,57.20
2018-07-25T04:28:06.756Z,57.10
2018-07-25T04:30:35.369Z,57.30
2018-07-25T04:33:04.019Z,57.30
2018-07-25T04:35:32.632Z,57.40
2018-07-25T04:38:01.251Z,57.20
2018-07-25T04:40:29.842Z,57.20
2018-07-25T04:42:58.475Z,57.50
2018-07-25T04:45:27.058Z,57.50
2018-07-25T04:47:55.694Z,57.60
2018-07-25T04:50:24.304Z,57.40
2018-07-25T04:52:52.908Z,57.20
2018-07-25T04:55:21.560Z,57.30
2018-07-25T04:57:50.311Z,57.40
2018-07-25T05:00:19.039Z,57.50
2018-07-25T05:02:47.707Z,57.10
2018-07-25T05:05:16.412Z,56.40
2018-07-25T05:07:45.100Z,56.40
2018-07-25T05:10:13.758Z,56.40
2018-07-25T05:12:42.423Z,56.80
2018-07-25T05:15:11.095Z,56.60
2018-07-25T05:17:39.704Z,56.70
2018-07-25T05:20:08.338Z,56.50
2018-07-25T05:22:36.971Z,56.50
2018-07-25T05:25:05.771Z,56.60
2018-07-25T05:27:34.355Z,56.20
2018-07-25T05:30:03.059Z,55.10
2018-07-25T05:32:31.702Z,53.30
2018-07-25T05:35:00.425Z,51.90
2018-07-25T05:37:29.093Z,50.80
2018-07-25T05:39:57.685Z,49.80
2018-07-25T05:42:26.357Z,48.60
2018-07-25T05:44:54.947Z,47.30
2018-07-25T05:47:23.571Z,46.80
2018-07-25T05:49:52.377Z,45.10
2018-07-25T05:52:21.047Z,44.90
2018-07-25T05:54:49.669Z,45.20
2018-07-25T05:57:18.328Z,43.70
2018-07-25T05:59:46.977Z,43.40
2018-07-25T06:02:15.595Z,42.80
2018-07-25T06:04:44.229Z,41.60
2018-07-25T06:07:12.846Z,41.20
2018-07-25T06:09:41.475Z,40.90
2018-07-25T06:12:10.637Z,40.80
2018-07-25T06:14:39.260Z,39.90
2018-07-25T06:17:07.906Z,39.70
2018-07-25T06:19:36.526Z,38.50
2018-07-25T06:22:05.125Z,38.00
2018-07-25T06:24:33.739Z,37.10
2018-07-25T06:27:02.334Z,35.40
2018-07-25T06:29:31.058Z,35.60
2018-07-25T06:31:59.655Z,34.50
2018-07-25T06:34:28.240Z,35.00
2018-07-25T06:36:56.858Z,35.00
2018-07-25T06:39:25.562Z,35.40
2018-07-25T06:41:54.264Z,35.10
2018-07-25T06:44:22.926Z,33.10
2018-07-25T06:46:51.541Z,31.90
2018-07-25T06:52:00.471Z,30.80
2018-07-25T06:54:29.267Z,30.50
2018-07-25T06:56:59.025Z,30.30
2018-07-25T06:59:28.179Z,29.80
2018-07-25T07:01:56.973Z,28.90
2018-07-25T07:04:25.603Z,29.00
2018-07-25T07:06:57.028Z,28.30
2018-07-25T07:09:25.667Z,28.00
2018-07-25T07:11:54.275Z,27.30
2018-07-25T07:14:22.918Z,26.60
2018-07-25T07:16:51.598Z,26.40
2018-07-25T07:19:20.197Z,26.90
2018-07-25T07:21:48.891Z,26.60
2018-07-25T07:24:17.471Z,26.50
2018-07-25T07:26:46.070Z,25.70
2018-07-25T07:29:14.686Z,25.90
2018-07-25T07:31:44.467Z,25.90
2018-07-25T07:34:13.188Z,25.70
2018-07-25T07:36:42.760Z,24.60
2018-07-25T07:39:13.062Z,24.20
2018-07-25T07:41:41.911Z,23.60
2018-07-25T07:44:10.719Z,24.00
2018-07-25T07:46:39.323Z,24.50
2018-07-25T07:49:07.992Z,23.60
2018-07-25T07:51:36.671Z,23.80
2018-07-25T07:54:05.401Z,23.60
2018-07-25T07:56:34.043Z,23.00
2018-07-25T07:59:02.759Z,23.00
2018-07-25T08:01:31.396Z,23.20
2018-07-25T08:04:00.030Z,22.40
2018-07-25T08:06:28.661Z,22.50
2018-07-25T08:08:57.356Z,21.50
2018-07-25T08:11:25.981Z,20.80
2018-07-25T08:13:54.600Z,20.50
2018-07-25T08:16:23.248Z,20.60
2018-07-25T08:18:51.862Z,20.40
2018-07-25T08:21:20.530Z,20.40
2018-07-25T08:23:49.121Z,20.50
2018-07-25T08:26:17.717Z,20.50
2018-07-25T08:28:46.319Z,19.80
2018-07-25T08:31:14.913Z,19.00
2018-07-25T08:33:43.513Z,19.60
2018-07-25T08:36:12.145Z,19.90
2018-07-25T08:38:42.025Z,19.10
2018-07-25T08:41:10.708Z,19.50
2018-07-25T08:43:40.441Z,19.10
2018-07-25T08:46:10.144Z,18.40
2018-07-25T08:48:39.219Z,19.20
2018-07-25T08:51:07.918Z,18.60
2018-07-25T08:53:36.736Z,18.50
2018-07-25T08:56:05.843Z,20.00
2018-07-25T08:58:34.489Z,19.90
2018-07-25T09:01:03.182Z,19.40
2018-07-25T09:03:31.909Z,18.50
2018-07-25T09:06:00.602Z,20.20
2018-07-25T09:08:29.320Z,20.30
2018-07-25T09:10:57.937Z,19.40
2018-07-25T09:13:26.680Z,19.40
2018-07-25T09:15:55.309Z,19.10
2018-07-25T09:18:24.020Z,20.10
2018-07-25T09:20:52.711Z,20.20
2018-07-25T09:23:21.360Z,19.50
2018-07-25T09:25:49.998Z,18.80
2018-07-25T09:28:18.575Z,18.00
2018-07-25T09:30:47.167Z,16.70
2018-07-25T09:33:15.767Z,16.40
2018-07-25T09:35:44.408Z,16.50
2018-07-25T09:38:12.997Z,15.60
2018-07-25T09:40:41.624Z,16.20
2018-07-25T09:43:10.225Z,15.60
2018-07-25T09:45:38.850Z,16.00
2018-07-25T09:48:07.479Z,16.10
2018-07-25T09:50:36.068Z,16.10
2018-07-25T09:53:04.802Z,16.80
2018-07-25T09:55:33.391Z,15.40
2018-07-25T09:58:02.072Z,15.50
2018-07-25T10:00:35.846Z,16.00
2018-07-25T10:03:04.488Z,14.40
2018-07-25T10:05:33.172Z,14.50
2018-07-25T10:08:01.763Z,14.40
2018-07-25T10:10:30.410Z,13.30
2018-07-25T10:12:59.005Z,13.00
2018-07-25T10:15:27.667Z,12.40
2018-07-25T10:17:56.317Z,12.60
2018-07-25T10:20:24.935Z,11.70
2018-07-25T10:22:53.562Z,11.80
2018-07-25T10:25:22.242Z,11.90
2018-07-25T10:27:50.846Z,12.30
2018-07-25T10:30:19.478Z,12.30
2018-07-25T10:32:48.237Z,12.50
2018-07-25T10:35:16.851Z,13.50
2018-07-25T10:37:45.523Z,14.20
2018-07-25T10:40:18.641Z,14.60
2018-07-25T10:42:47.262Z,15.30
2018-07-25T10:45:15.906Z,15.10
2018-07-25T10:47:44.500Z,15.20
2018-07-25T10:50:13.094Z,14.80
2018-07-25T10:52:41.713Z,14.80
2018-07-25T10:55:10.309Z,15.20
2018-07-25T10:57:38.945Z,16.00
2018-07-25T11:00:08.186Z,17.10
2018-07-25T11:02:37.137Z,17.50
2018-07-25T11:05:05.827Z,17.80
2018-07-25T11:07:34.424Z,18.50
2018-07-25T11:10:03.081Z,19.60
2018-07-25T11:12:31.699Z,18.90
2018-07-25T11:15:00.402Z,17.40
2018-07-25T11:17:29.123Z,16.00
2018-07-25T11:19:57.768Z,12.90
2018-07-25T11:22:26.375Z,12.10
2018-07-25T11:24:55.101Z,11.60
2018-07-25T11:27:23.793Z,11.40
2018-07-25T11:29:52.431Z,11.70
2018-07-25T11:32:21.062Z,11.60
2018-07-25T11:34:49.647Z,12.20
2018-07-25T11:37:18.276Z,12.70
2018-07-25T11:39:46.880Z,12.60
2018-07-25T11:42:15.537Z,12.60
2018-07-25T11:44:44.262Z,12.30
2018-07-25T11:47:14.095Z,11.30
2018-07-25T11:49:42.759Z,10.30
2018-07-25T11:52:11.398Z,10.50
2018-07-25T11:54:40.007Z,9.70
2018-07-25T11:57:08.641Z,9.40
2018-07-25T11:59:37.312Z,9.90
2018-07-25T12:02:06.109Z,9.40
2018-07-25T12:04:34.701Z,9.10
2018-07-25T12:07:03.332Z,8.90
2018-07-25T12:09:32.052Z,9.60
2018-07-25T12:12:00.842Z,9.90
2018-07-25T12:14:29.516Z,10.00
2018-07-25T12:16:58.185Z,10.70
2018-07-25T12:19:26.835Z,10.90
2018-07-25T12:21:55.497Z,11.00
2018-07-25T12:24:24.133Z,10.90
2018-07-25T12:26:52.826Z,10.90
2018-07-25T12:29:21.492Z,10.20
2018-07-25T12:31:50.119Z,10.20
2018-07-25T12:34:20.106Z,10.20
2018-07-25T12:36:48.808Z,9.80
2018-07-25T12:39:17.425Z,10.10
2018-07-25T12:41:46.069Z,10.50
2018-07-25T12:44:14.626Z,10.40
2018-07-25T12:46:43.215Z,10.70
2018-07-25T12:49:11.879Z,10.00
2018-07-25T12:51:40.655Z,9.40
2018-07-25T12:54:09.462Z,8.60
2018-07-25T12:56:38.059Z,8.50
2018-07-25T12:59:06.725Z,8.60
2018-07-25T13:01:35.327Z,9.80
2018-07-25T13:04:04.106Z,11.90
2018-07-25T13:06:32.719Z,13.00
2018-07-25T13:09:01.386Z,13.90
2018-07-25T13:11:30.832Z,13.60
2018-07-25T13:13:59.429Z,13.60
2018-07-25T13:16:28.069Z,13.80
2018-07-25T13:18:56.672Z,13.70
2018-07-25T13:21:25.313Z,13.50
2018-07-25T13:23:53.933Z,12.80
2018-07-25T13:26:22.571Z,12.70
2018-07-25T13:28:51.245Z,12.80
2018-07-25T13:31:19.869Z,12.70
2018-07-25T13:33:48.586Z,13.40
2018-07-25T13:36:17.285Z,13.70
2018-07-25T13:38:45.883Z,14.10
2018-07-25T13:41:14.518Z,13.70
2018-07-25T13:43:44.693Z,13.90
2018-07-25T13:46:13.463Z,14.20
2018-07-25T13:48:42.042Z,14.70
2018-07-25T13:51:10.808Z,13.90
2018-07-25T13:53:39.414Z,14.30
2018-07-25T13:56:08.227Z,14.00
2018-07-25T13:58:36.987Z,13.70
2018-07-25T14:01:05.669Z,14.00
2018-07-25T14:03:34.299Z,14.50
2018-07-25T14:06:02.915Z,14.60
2018-07-25T14:08:31.555Z,15.30
2018-07-25T14:11:00.975Z,15.70
2018-07-25T14:13:29.579Z,14.70
2018-07-25T14:15:58.190Z,14.70
2018-07-25T14:18:26.831Z,14.80
2018-07-25T14:20:55.481Z,14.20
2018-07-25T14:23:24.109Z,13.70
2018-07-25T14:25:54.258Z,14.40
2018-07-25T14:28:22.941Z,14.70
2018-07-25T14:30:51.582Z,14.10
2018-07-25T14:33:20.301Z,14.10
2018-07-25T14:35:48.927Z,14.70
2018-07-25T14:38:17.558Z,14.80
2018-07-25T14:40:46.888Z,14.60
2018-07-25T14:43:15.520Z,14.70
2018-07-25T14:45:44.117Z,14.80
2018-07-25T14:48:12.780Z,15.30
2018-07-25T14:50:41.417Z,14.80
2018-07-25T14:53:10.154Z,14.50
2018-07-25T14:55:38.808Z,14.50
2018-07-25T14:58:07.613Z,14.60
2018-07-25T15:00:36.301Z,14.70
2018-07-25T15:03:05.034Z,14.50
2018-07-25T15:05:33.738Z,14.40
2018-07-25T15:08:02.414Z,14.40
2018-07-25T15:10:31.118Z,14.80
2018-07-25T15:13:00.078Z,14.70
2018-07-25T15:15:28.850Z,14.50
2018-07-25T15:17:57.612Z,14.20
2018-07-25T15:20:26.274Z,14.50
2018-07-25T15:22:55.573Z,14.70
2018-07-25T15:25:24.201Z,15.10
2018-07-25T15:27:52.825Z,15.40
2018-07-25T15:30:21.503Z,15.50
2018-07-25T15:32:50.128Z,15.40
2018-07-25T15:35:18.702Z,15.80
2018-07-25T15:37:47.327Z,15.70
2018-07-25T15:40:16.054Z,15.20
2018-07-25T15:42:44.682Z,15.10
2018-07-25T15:45:13.310Z,14.80
2018-07-25T15:47:41.898Z,14.80
2018-07-25T15:50:10.567Z,15.00
2018-07-25T15:52:39.229Z,15.10
2018-07-25T15:55:07.901Z,15.10
2018-07-25T15:57:36.563Z,15.30
2018-07-25T16:00:07.033Z,15.00
2018-07-25T16:02:35.756Z,15.40
2018-07-25T16:05:04.454Z,14.50
2018-07-25T16:07:33.148Z,14.50
2018-07-25T16:10:01.821Z,14.20
2018-07-25T16:12:30.377Z,14.80
2018-07-25T16:14:59.051Z,15.20
2018-07-25T16:17:27.742Z,15.50
2018-07-25T16:19:56.402Z,15.80
2018-07-25T16:22:25.007Z,16.10
2018-07-25T16:24:53.623Z,16.70
2018-07-25T16:27:22.315Z,16.90
2018-07-25T16:29:51.006Z,16.90
2018-07-25T16:32:19.665Z,17.10
2018-07-25T16:34:48.286Z,17.50
2018-07-25T16:37:16.889Z,17.40
2018-07-25T16:39:45.788Z,17.50
2018-07-25T16:42:14.443Z,17.90
2018-07-25T16:44:43.083Z,18.30
2018-07-25T16:47:11.746Z,18.80
2018-07-25T16:49:40.370Z,18.80
2018-07-25T16:52:09.038Z,19.00
2018-07-25T16:54:37.714Z,18.80
2018-07-25T16:57:06.495Z,18.40
2018-07-25T16:59:35.137Z,18.50
2018-07-25T17:02:03.819Z,18.80
2018-07-25T17:04:32.449Z,18.60
2018-07-25T17:07:01.142Z,18.80
2018-07-25T17:09:29.829Z,19.10
2018-07-25T17:11:58.479Z,19.50
2018-07-25T17:14:27.081Z,20.10
2018-07-25T17:16:55.751Z,20.40
2018-07-25T17:19:24.395Z,20.60
2018-07-25T17:21:53.156Z,20.70
2018-07-25T17:24:21.782Z,20.90
2018-07-25T17:26:50.445Z,21.10
2018-07-25T17:29:19.104Z,21.60
2018-07-25T17:31:47.750Z,21.80
2018-07-25T17:34:16.378Z,22.20
2018-07-25T17:36:45.046Z,22.70
2018-07-25T17:39:13.702Z,23.10
2018-07-25T17:41:42.699Z,23.40
2018-07-25T17:44:11.354Z,24.00
2018-07-25T17:46:40.051Z,24.20
2018-07-25T17:49:08.723Z,24.50
2018-07-25T17:51:37.494Z,24.80
2018-07-25T17:54:06.277Z,24.90
2018-07-25T17:56:34.914Z,25.00
2018-07-25T17:59:03.552Z,25.10
2018-07-25T18:01:32.237Z,25.20
2018-07-25T18:04:00.924Z,25.10
2018-07-25T18:06:29.523Z,25.30
2018-07-25T18:08:58.155Z,25.30
2018-07-25T18:11:26.807Z,25.30
2018-07-25T18:14:00.681Z,25.30
2018-07-25T18:16:29.375Z,25.30
2018-07-25T18:18:58.039Z,25.20
2018-07-25T18:21:26.797Z,25.20
2018-07-25T18:23:55.467Z,25.10
2018-07-25T18:26:24.276Z,25.30
2018-07-25T18:28:53.081Z,25.50
2018-07-25T18:31:21.827Z,25.60
2018-07-25T18:33:50.511Z,25.40
2018-07-25T18:36:19.476Z,25.50
2018-07-25T18:38:48.386Z,25.60
2018-07-25T18:41:17.097Z,25.90
2018-07-25T18:43:45.817Z,25.90
2018-07-25T18:46:14.468Z,25.90
2018-07-25T18:48:43.407Z,26.30
2018-07-25T18:51:12.329Z,26.20
2018-07-25T18:53:41.389Z,26.60
2018-07-25T18:56:10.402Z,26.70
2018-07-25T18:58:39.156Z,27.10
2018-07-25T19:01:07.805Z,27.20
2018-07-25T19:03:36.717Z,27.30
2018-07-25T19:06:05.687Z,27.40
2018-07-25T19:08:34.614Z,27.60
2018-07-25T19:11:03.596Z,27.80
2018-07-25T19:13:36.325Z,28.00
2018-07-25T19:16:06.309Z,28.10
2018-07-25T19:18:35.119Z,28.40
2018-07-25T19:21:04.022Z,28.80
2018-07-25T19:23:32.722Z,28.80
2018-07-25T19:26:01.364Z,29.00
2018-07-25T19:28:30.046Z,29.20
2018-07-25T19:30:58.673Z,29.30
2018-07-25T19:33:27.568Z,29.50
2018-07-25T19:35:56.569Z,29.60
2018-07-25T19:38:25.557Z,29.70
2018-07-25T19:40:54.337Z,30.00
2018-07-25T19:43:23.414Z,30.00
2018-07-25T19:45:52.104Z,30.00
2018-07-25T19:48:21.050Z,30.10
2018-07-25T19:50:50.022Z,30.50
2018-07-25T19:53:18.780Z,30.70
2018-07-25T19:55:47.676Z,30.80
2018-07-25T19:58:16.416Z,30.70
2018-07-25T20:00:45.356Z,30.70
2018-07-25T20:03:14.466Z,30.70
2018-07-25T20:05:43.406Z,30.70
2018-07-25T20:08:12.103Z,30.90
2018-07-25T20:10:40.997Z,31.20
2018-07-25T20:13:09.683Z,31.40
2018-07-25T20:15:43.600Z,31.80
2018-07-25T20:18:12.314Z,31.90
2018-07-25T20:20:41.014Z,32.00
2018-07-25T20:23:10.005Z,32.00
2018-07-25T20:25:38.972Z,32.10
2018-07-25T20:28:07.934Z,32.40
2018-07-25T20:30:36.645Z,32.50
2018-07-25T20:33:05.356Z,32.70
2018-07-25T20:35:34.193Z,32.80
2018-07-25T20:38:03.077Z,32.90
2018-07-25T20:40:32.072Z,33.10
2018-07-25T20:43:01.068Z,33.20
2018-07-25T20:45:29.814Z,33.70
2018-07-25T20:47:58.804Z,34.10
2018-07-25T20:50:27.813Z,34.20
2018-07-25T20:52:56.566Z,34.50
2018-07-25T20:55:25.516Z,35.10
2018-07-25T20:57:54.520Z,35.20
2018-07-25T21:00:28.410Z,35.60
2018-07-25T21:02:57.168Z,35.90
2018-07-25T21:05:25.850Z,36.40
2018-07-25T21:07:54.584Z,36.70
2018-07-25T21:10:23.618Z,37.10
2018-07-25T21:12:52.241Z,36.40
2018-07-25T21:15:20.859Z,36.10
2018-07-25T21:17:49.496Z,36.70
2018-07-25T21:20:18.258Z,36.30
2018-07-25T21:22:46.978Z,36.30
2018-07-25T21:25:15.607Z,36.20
2018-07-25T21:27:44.237Z,36.30
2018-07-25T21:30:12.865Z,36.20
2018-07-25T21:32:41.583Z,36.50
2018-07-25T21:35:10.264Z,36.90
2018-07-25T21:37:38.960Z,36.70
2018-07-25T21:40:07.677Z,37.00
2018-07-25T21:42:36.324Z,36.80
2018-07-25T21:45:05.100Z,37.20
2018-07-25T21:47:33.705Z,37.10
2018-07-25T21:50:02.367Z,37.40
2018-07-25T21:52:31.039Z,37.60
2018-07-25T21:55:01.440Z,37.90
2018-07-25T21:57:30.090Z,38.00
2018-07-25T21:59:58.785Z,38.10
2018-07-25T22:02:27.594Z,38.00
2018-07-25T22:04:56.272Z,38.40
2018-07-25T22:07:25.158Z,38.50
2018-07-25T22:09:53.778Z,39.10
2018-07-25T22:12:22.489Z,39.40
2018-07-25T22:14:51.848Z,39.60
2018-07-25T22:17:20.560Z,39.50
2018-07-25T22:19:49.222Z,39.70
2018-07-25T22:22:17.907Z,40.40
2018-07-25T22:24:46.526Z,40.60
2018-07-25T22:27:15.213Z,41.00
2018-07-25T22:29:43.844Z,41.60
2018-07-25T22:32:12.477Z,41.30
2018-07-25T22:34:41.148Z,41.80
2018-07-25T22:37:09.764Z,40.80
2018-07-25T22:39:38.528Z,41.00
2018-07-25T22:42:07.208Z,41.30
2018-07-25T22:44:35.842Z,41.30
2018-07-25T22:47:04.608Z,41.70
2018-07-25T22:49:33.336Z,41.70
2018-07-25T22:52:01.978Z,42.00
2018-07-25T22:54:30.825Z,41.20
2018-07-25T22:56:59.499Z,41.40
2018-07-25T22:59:28.142Z,41.70
2018-07-25T23:01:56.745Z,41.70
2018-07-25T23:04:25.557Z,41.30
2018-07-25T23:06:54.239Z,41.60
2018-07-25T23:09:22.965Z,41.60
2018-07-25T23:11:51.569Z,41.60
2018-07-25T23:14:20.254Z,41.60
2018-07-25T23:16:48.914Z,41.50
2018-07-25T23:19:17.727Z,41.50
2018-07-25T23:21:46.644Z,41.50
2018-07-25T23:24:15.244Z,41.50
2018-07-25T23:26:43.925Z,41.50
2018-07-25T23:29:12.596Z,41.50
2018-07-25T23:31:41.273Z,41.60
2018-07-25T23:34:09.945Z,41.70
2018-07-25T23:36:38.635Z,41.40
2018-07-25T23:39:08.743Z,41.80
2018-07-25T23:41:37.432Z,41.90
2018-07-25T23:44:06.078Z,42.30
2018-07-25T23:46:34.775Z,42.60
2018-07-25T23:49:03.423Z,42.90
2018-07-25T23:51:32.039Z,43.10
2018-07-25T23:54:00.696Z,43.50
2018-07-25T23:56:29.283Z,43.50
2018-07-25T23:58:57.994Z,43.80
